sensor_id;sensor_type;location;lat;lon;timestamp;P1;durP1;ratioP1;P2;durP2;ratioP2
29634;SDS011;16557;54.762;56.068;2023-02-15T00:01:24;22.65;;;7.67;;
29634;SDS011;16557;54.762;56.068;2023-02-15T00:03:53;16.37;;;7.00;;
29634;SDS011;16557;54.762;56.068;2023-02-15T00:06:23;17.67;;;7.85;;
29634;SDS011;16557;54.762;56.068;2023-02-15T00:08:53;13.53;;;6.85;;
29634;SDS011;16557;54.762;56.068;2023-02-15T00:11:23;20.90;;;8.93;;
29634;SDS011;16557;54.762;56.068;2023-02-15T00:14:08;16.07;;;6.60;;
29634;SDS011;16557;54.762;56.068;2023-02-15T00:16:41;12.65;;;6.72;;
29634;SDS011;16557;54.762;56.068;2023-02-15T00:19:12;15.48;;;6.55;;
29634;SDS011;16557;54.762;56.068;2023-02-15T00:21:42;17.98;;;8.40;;
29634;SDS011;16557;54.762;56.068;2023-02-15T00:24:13;15.98;;;7.58;;
29634;SDS011;16557;54.762;56.068;2023-02-15T00:26:44;17.00;;;7.92;;
29634;SDS011;16557;54.762;56.068;2023-02-15T00:29:14;15.40;;;7.58;;
29634;SDS011;16557;54.762;56.068;2023-02-15T00:31:44;19.73;;;7.85;;
29634;SDS011;16557;54.762;56.068;2023-02-15T00:34:14;19.55;;;7.87;;
29634;SDS011;16557;54.762;56.068;2023-02-15T00:36:45;17.23;;;8.53;;
29634;SDS011;16557;54.762;56.068;2023-02-15T00:39:15;16.00;;;8.28;;
29634;SDS011;16557;54.762;56.068;2023-02-15T00:41:45;16.05;;;7.65;;
29634;SDS011;16557;54.762;56.068;2023-02-15T00:44:15;11.12;;;5.92;;
29634;SDS011;16557;54.762;56.068;2023-02-15T00:46:44;17.77;;;7.60;;
29634;SDS011;16557;54.762;56.068;2023-02-15T00:49:13;17.20;;;8.58;;
29634;SDS011;16557;54.762;56.068;2023-02-15T00:51:43;16.73;;;7.85;;
29634;SDS011;16557;54.762;56.068;2023-02-15T00:54:12;24.75;;;8.25;;
29634;SDS011;16557;54.762;56.068;2023-02-15T00:56:41;53.92;;;10.82;;
29634;SDS011;16557;54.762;56.068;2023-02-15T00:59:10;21.42;;;9.50;;
29634;SDS011;16557;54.762;56.068;2023-02-15T01:01:40;20.77;;;8.50;;
29634;SDS011;16557;54.762;56.068;2023-02-15T01:04:09;18.65;;;9.13;;
29634;SDS011;16557;54.762;56.068;2023-02-15T01:06:38;18.12;;;6.92;;
29634;SDS011;16557;54.762;56.068;2023-02-15T01:09:08;16.27;;;7.20;;
29634;SDS011;16557;54.762;56.068;2023-02-15T01:11:37;23.32;;;7.78;;
29634;SDS011;16557;54.762;56.068;2023-02-15T01:14:06;14.40;;;7.35;;
29634;SDS011;16557;54.762;56.068;2023-02-15T01:16:35;17.05;;;8.18;;
29634;SDS011;16557;54.762;56.068;2023-02-15T01:19:04;17.07;;;7.92;;
29634;SDS011;16557;54.762;56.068;2023-02-15T01:21:34;12.33;;;6.67;;
29634;SDS011;16557;54.762;56.068;2023-02-15T01:24:03;15.38;;;7.50;;
29634;SDS011;16557;54.762;56.068;2023-02-15T01:26:32;14.33;;;7.17;;
29634;SDS011;16557;54.762;56.068;2023-02-15T01:29:02;14.13;;;6.62;;
29634;SDS011;16557;54.762;56.068;2023-02-15T01:31:31;19.27;;;8.08;;
29634;SDS011;16557;54.762;56.068;2023-02-15T01:34:00;14.85;;;7.55;;
29634;SDS011;16557;54.762;56.068;2023-02-15T01:36:30;17.55;;;8.90;;
29634;SDS011;16557;54.762;56.068;2023-02-15T01:39:01;16.23;;;8.00;;
29634;SDS011;16557;54.762;56.068;2023-02-15T01:41:30;17.12;;;7.12;;
29634;SDS011;16557;54.762;56.068;2023-02-15T01:44:00;18.23;;;6.87;;
29634;SDS011;16557;54.762;56.068;2023-02-15T01:46:32;19.65;;;9.28;;
29634;SDS011;16557;54.762;56.068;2023-02-15T01:49:05;13.85;;;7.00;;
29634;SDS011;16557;54.762;56.068;2023-02-15T01:51:36;14.43;;;7.20;;
29634;SDS011;16557;54.762;56.068;2023-02-15T01:54:11;12.65;;;6.25;;
29634;SDS011;16557;54.762;56.068;2023-02-15T01:56:39;15.83;;;6.73;;
29634;SDS011;16557;54.762;56.068;2023-02-15T01:59:10;14.60;;;7.08;;
29634;SDS011;16557;54.762;56.068;2023-02-15T02:01:41;11.50;;;5.15;;
29634;SDS011;16557;54.762;56.068;2023-02-15T02:07:00;16.93;;;7.87;;
29634;SDS011;16557;54.762;56.068;2023-02-15T02:09:29;32.95;;;14.05;;
29634;SDS011;16557;54.762;56.068;2023-02-15T02:11:58;22.22;;;12.75;;
29634;SDS011;16557;54.762;56.068;2023-02-15T02:14:29;17.40;;;8.00;;
29634;SDS011;16557;54.762;56.068;2023-02-15T02:22:48;17.98;;;6.75;;
29634;SDS011;16557;54.762;56.068;2023-02-15T02:34:07;24.85;;;14.03;;
29634;SDS011;16557;54.762;56.068;2023-02-15T02:36:41;17.02;;;10.08;;
29634;SDS011;16557;54.762;56.068;2023-02-15T02:39:33;17.48;;;7.83;;
29634;SDS011;16557;54.762;56.068;2023-02-15T02:42:24;19.50;;;8.33;;
29634;SDS011;16557;54.762;56.068;2023-02-15T02:47:38;17.32;;;7.20;;
29634;SDS011;16557;54.762;56.068;2023-02-15T02:50:03;14.35;;;5.97;;
29634;SDS011;16557;54.762;56.068;2023-02-15T02:52:42;17.60;;;7.70;;
29634;SDS011;16557;54.762;56.068;2023-02-15T02:55:19;22.32;;;10.32;;
29634;SDS011;16557;54.762;56.068;2023-02-15T03:00:21;25.00;;;9.93;;
29634;SDS011;16557;54.762;56.068;2023-02-15T03:02:59;21.37;;;9.13;;
29634;SDS011;16557;54.762;56.068;2023-02-15T03:05:39;19.12;;;8.00;;
29634;SDS011;16557;54.762;56.068;2023-02-15T03:08:10;23.02;;;9.30;;
29634;SDS011;16557;54.762;56.068;2023-02-15T03:10:43;19.85;;;8.40;;
29634;SDS011;16557;54.762;56.068;2023-02-15T03:13:13;22.07;;;8.68;;
29634;SDS011;16557;54.762;56.068;2023-02-15T03:15:42;18.60;;;7.92;;
29634;SDS011;16557;54.762;56.068;2023-02-15T03:18:32;16.77;;;7.80;;
29634;SDS011;16557;54.762;56.068;2023-02-15T03:21:05;17.92;;;7.97;;
29634;SDS011;16557;54.762;56.068;2023-02-15T03:23:36;20.05;;;7.72;;
29634;SDS011;16557;54.762;56.068;2023-02-15T03:26:06;15.70;;;6.35;;
29634;SDS011;16557;54.762;56.068;2023-02-15T03:28:41;16.45;;;6.85;;
29634;SDS011;16557;54.762;56.068;2023-02-15T03:31:11;13.37;;;5.97;;
29634;SDS011;16557;54.762;56.068;2023-02-15T03:33:42;17.07;;;6.75;;
29634;SDS011;16557;54.762;56.068;2023-02-15T03:36:21;15.50;;;6.47;;
29634;SDS011;16557;54.762;56.068;2023-02-15T03:38:50;13.20;;;6.13;;
29634;SDS011;16557;54.762;56.068;2023-02-15T03:41:20;16.05;;;7.45;;
29634;SDS011;16557;54.762;56.068;2023-02-15T03:46:33;17.75;;;7.10;;
29634;SDS011;16557;54.762;56.068;2023-02-15T03:49:08;14.23;;;7.20;;
29634;SDS011;16557;54.762;56.068;2023-02-15T03:51:48;18.85;;;7.92;;
29634;SDS011;16557;54.762;56.068;2023-02-15T03:57:10;14.15;;;6.92;;
29634;SDS011;16557;54.762;56.068;2023-02-15T03:59:57;17.30;;;7.50;;
29634;SDS011;16557;54.762;56.068;2023-02-15T04:03:07;17.65;;;7.50;;
29634;SDS011;16557;54.762;56.068;2023-02-15T04:05:26;14.47;;;7.47;;
29634;SDS011;16557;54.762;56.068;2023-02-15T04:07:55;15.78;;;7.58;;
29634;SDS011;16557;54.762;56.068;2023-02-15T04:10:24;15.83;;;7.87;;
29634;SDS011;16557;54.762;56.068;2023-02-15T04:13:11;15.00;;;6.58;;
29634;SDS011;16557;54.762;56.068;2023-02-15T04:15:40;18.40;;;7.87;;
29634;SDS011;16557;54.762;56.068;2023-02-15T04:18:28;26.52;;;10.80;;
29634;SDS011;16557;54.762;56.068;2023-02-15T04:21:20;17.10;;;7.83;;
29634;SDS011;16557;54.762;56.068;2023-02-15T04:24:08;18.92;;;8.10;;
29634;SDS011;16557;54.762;56.068;2023-02-15T04:26:55;16.97;;;6.70;;
29634;SDS011;16557;54.762;56.068;2023-02-15T04:29:25;15.68;;;7.45;;
29634;SDS011;16557;54.762;56.068;2023-02-15T04:31:55;15.90;;;7.80;;
29634;SDS011;16557;54.762;56.068;2023-02-15T04:34:25;12.40;;;7.20;;
29634;SDS011;16557;54.762;56.068;2023-02-15T04:36:55;17.48;;;7.40;;
29634;SDS011;16557;54.762;56.068;2023-02-15T04:39:24;19.30;;;8.40;;
29634;SDS011;16557;54.762;56.068;2023-02-15T04:41:53;14.68;;;6.08;;
29634;SDS011;16557;54.762;56.068;2023-02-15T04:44:22;23.77;;;10.40;;
29634;SDS011;16557;54.762;56.068;2023-02-15T04:46:52;17.52;;;8.80;;
29634;SDS011;16557;54.762;56.068;2023-02-15T04:49:22;18.80;;;7.78;;
29634;SDS011;16557;54.762;56.068;2023-02-15T04:51:51;16.42;;;7.03;;
29634;SDS011;16557;54.762;56.068;2023-02-15T04:54:20;20.55;;;9.10;;
29634;SDS011;16557;54.762;56.068;2023-02-15T04:56:49;26.00;;;11.25;;
29634;SDS011;16557;54.762;56.068;2023-02-15T04:59:19;16.35;;;8.25;;
29634;SDS011;16557;54.762;56.068;2023-02-15T05:01:48;17.80;;;8.73;;
29634;SDS011;16557;54.762;56.068;2023-02-15T05:04:17;17.35;;;7.33;;
29634;SDS011;16557;54.762;56.068;2023-02-15T05:06:47;18.35;;;7.50;;
29634;SDS011;16557;54.762;56.068;2023-02-15T05:09:16;17.82;;;8.25;;
29634;SDS011;16557;54.762;56.068;2023-02-15T05:11:45;20.05;;;8.93;;
29634;SDS011;16557;54.762;56.068;2023-02-15T05:14:15;16.10;;;8.28;;
29634;SDS011;16557;54.762;56.068;2023-02-15T05:16:44;17.70;;;7.55;;
29634;SDS011;16557;54.762;56.068;2023-02-15T05:19:13;28.92;;;13.78;;
29634;SDS011;16557;54.762;56.068;2023-02-15T05:21:43;44.85;;;21.37;;
29634;SDS011;16557;54.762;56.068;2023-02-15T05:24:12;24.10;;;10.58;;
29634;SDS011;16557;54.762;56.068;2023-02-15T05:26:59;19.57;;;9.78;;
29634;SDS011;16557;54.762;56.068;2023-02-15T05:29:49;18.57;;;8.38;;
29634;SDS011;16557;54.762;56.068;2023-02-15T05:32:18;18.30;;;9.28;;
29634;SDS011;16557;54.762;56.068;2023-02-15T05:34:47;21.27;;;10.20;;
29634;SDS011;16557;54.762;56.068;2023-02-15T05:37:16;20.10;;;10.30;;
29634;SDS011;16557;54.762;56.068;2023-02-15T05:39:45;24.57;;;10.05;;
29634;SDS011;16557;54.762;56.068;2023-02-15T05:42:15;28.57;;;12.37;;
29634;SDS011;16557;54.762;56.068;2023-02-15T05:44:44;23.95;;;12.45;;
29634;SDS011;16557;54.762;56.068;2023-02-15T05:47:13;27.00;;;10.65;;
29634;SDS011;16557;54.762;56.068;2023-02-15T05:49:42;24.98;;;10.88;;
29634;SDS011;16557;54.762;56.068;2023-02-15T05:52:12;23.85;;;10.63;;
29634;SDS011;16557;54.762;56.068;2023-02-15T05:54:41;24.20;;;10.65;;
29634;SDS011;16557;54.762;56.068;2023-02-15T05:57:10;23.18;;;10.98;;
29634;SDS011;16557;54.762;56.068;2023-02-15T05:59:39;25.43;;;11.83;;
29634;SDS011;16557;54.762;56.068;2023-02-15T06:02:08;21.23;;;10.23;;
29634;SDS011;16557;54.762;56.068;2023-02-15T06:04:38;23.42;;;10.78;;
29634;SDS011;16557;54.762;56.068;2023-02-15T06:07:08;21.93;;;10.98;;
29634;SDS011;16557;54.762;56.068;2023-02-15T06:09:39;25.20;;;11.83;;
29634;SDS011;16557;54.762;56.068;2023-02-15T06:12:08;23.83;;;11.57;;
29634;SDS011;16557;54.762;56.068;2023-02-15T06:14:37;26.60;;;13.80;;
29634;SDS011;16557;54.762;56.068;2023-02-15T06:17:09;28.87;;;13.03;;
29634;SDS011;16557;54.762;56.068;2023-02-15T06:19:38;28.45;;;12.07;;
29634;SDS011;16557;54.762;56.068;2023-02-15T06:22:07;24.00;;;11.68;;
29634;SDS011;16557;54.762;56.068;2023-02-15T06:24:36;22.40;;;11.28;;
29634;SDS011;16557;54.762;56.068;2023-02-15T06:27:06;28.45;;;12.53;;
29634;SDS011;16557;54.762;56.068;2023-02-15T06:29:35;24.98;;;11.50;;
29634;SDS011;16557;54.762;56.068;2023-02-15T06:32:05;21.33;;;10.35;;
29634;SDS011;16557;54.762;56.068;2023-02-15T06:34:35;23.25;;;10.10;;
29634;SDS011;16557;54.762;56.068;2023-02-15T06:37:04;26.20;;;11.90;;
29634;SDS011;16557;54.762;56.068;2023-02-15T06:39:35;26.07;;;11.83;;
29634;SDS011;16557;54.762;56.068;2023-02-15T06:42:05;27.37;;;10.85;;
29634;SDS011;16557;54.762;56.068;2023-02-15T06:44:34;23.45;;;12.78;;
29634;SDS011;16557;54.762;56.068;2023-02-15T06:47:03;28.05;;;12.43;;
29634;SDS011;16557;54.762;56.068;2023-02-15T06:49:32;21.68;;;11.85;;
29634;SDS011;16557;54.762;56.068;2023-02-15T06:52:01;23.40;;;11.35;;
29634;SDS011;16557;54.762;56.068;2023-02-15T06:54:31;22.85;;;10.32;;
29634;SDS011;16557;54.762;56.068;2023-02-15T06:57:00;23.35;;;11.75;;
29634;SDS011;16557;54.762;56.068;2023-02-15T06:59:29;20.72;;;11.38;;
29634;SDS011;16557;54.762;56.068;2023-02-15T07:02:01;24.77;;;12.60;;
29634;SDS011;16557;54.762;56.068;2023-02-15T07:04:30;22.85;;;11.63;;
29634;SDS011;16557;54.762;56.068;2023-02-15T07:07:00;21.10;;;11.60;;
29634;SDS011;16557;54.762;56.068;2023-02-15T07:09:29;24.18;;;12.03;;
29634;SDS011;16557;54.762;56.068;2023-02-15T07:11:58;26.68;;;12.80;;
29634;SDS011;16557;54.762;56.068;2023-02-15T07:14:45;22.35;;;11.57;;
29634;SDS011;16557;54.762;56.068;2023-02-15T07:17:17;19.15;;;10.80;;
29634;SDS011;16557;54.762;56.068;2023-02-15T07:19:45;22.45;;;11.12;;
29634;SDS011;16557;54.762;56.068;2023-02-15T07:22:15;22.35;;;11.68;;
29634;SDS011;16557;54.762;56.068;2023-02-15T07:24:44;18.82;;;10.72;;
29634;SDS011;16557;54.762;56.068;2023-02-15T07:27:13;19.48;;;11.18;;
29634;SDS011;16557;54.762;56.068;2023-02-15T07:29:42;22.48;;;12.30;;
29634;SDS011;16557;54.762;56.068;2023-02-15T07:32:11;19.75;;;10.80;;
29634;SDS011;16557;54.762;56.068;2023-02-15T07:34:41;21.87;;;11.75;;
29634;SDS011;16557;54.762;56.068;2023-02-15T07:37:10;19.37;;;11.25;;
29634;SDS011;16557;54.762;56.068;2023-02-15T07:39:41;20.57;;;9.95;;
29634;SDS011;16557;54.762;56.068;2023-02-15T07:42:10;17.85;;;9.53;;
29634;SDS011;16557;54.762;56.068;2023-02-15T07:44:40;17.55;;;9.30;;
29634;SDS011;16557;54.762;56.068;2023-02-15T07:47:09;18.25;;;9.38;;
29634;SDS011;16557;54.762;56.068;2023-02-15T07:49:39;15.65;;;8.73;;
29634;SDS011;16557;54.762;56.068;2023-02-15T07:52:08;17.77;;;8.98;;
29634;SDS011;16557;54.762;56.068;2023-02-15T07:54:37;22.22;;;10.32;;
29634;SDS011;16557;54.762;56.068;2023-02-15T07:57:07;21.50;;;9.58;;
29634;SDS011;16557;54.762;56.068;2023-02-15T07:59:36;15.30;;;8.43;;
29634;SDS011;16557;54.762;56.068;2023-02-15T08:02:10;15.30;;;8.08;;
29634;SDS011;16557;54.762;56.068;2023-02-15T08:04:41;17.00;;;8.28;;
29634;SDS011;16557;54.762;56.068;2023-02-15T08:07:10;16.05;;;8.73;;
29634;SDS011;16557;54.762;56.068;2023-02-15T08:09:42;19.85;;;8.65;;
29634;SDS011;16557;54.762;56.068;2023-02-15T08:12:12;17.30;;;7.87;;
29634;SDS011;16557;54.762;56.068;2023-02-15T08:14:41;18.62;;;9.60;;
29634;SDS011;16557;54.762;56.068;2023-02-15T08:17:10;16.02;;;9.15;;
29634;SDS011;16557;54.762;56.068;2023-02-15T08:19:39;21.55;;;10.10;;
29634;SDS011;16557;54.762;56.068;2023-02-15T08:22:11;19.60;;;9.60;;
29634;SDS011;16557;54.762;56.068;2023-02-15T08:24:41;15.63;;;8.68;;
29634;SDS011;16557;54.762;56.068;2023-02-15T08:27:10;17.73;;;8.75;;
29634;SDS011;16557;54.762;56.068;2023-02-15T08:29:40;17.12;;;7.28;;
29634;SDS011;16557;54.762;56.068;2023-02-15T08:32:09;13.75;;;7.58;;
29634;SDS011;16557;54.762;56.068;2023-02-15T08:34:40;18.65;;;7.12;;
29634;SDS011;16557;54.762;56.068;2023-02-15T08:37:09;14.73;;;7.50;;
29634;SDS011;16557;54.762;56.068;2023-02-15T08:39:40;10.63;;;6.90;;
29634;SDS011;16557;54.762;56.068;2023-02-15T08:42:10;15.55;;;7.55;;
29634;SDS011;16557;54.762;56.068;2023-02-15T08:44:39;17.85;;;7.17;;
29634;SDS011;16557;54.762;56.068;2023-02-15T08:47:09;14.70;;;6.78;;
29634;SDS011;16557;54.762;56.068;2023-02-15T08:49:38;14.95;;;7.62;;
29634;SDS011;16557;54.762;56.068;2023-02-15T08:52:07;11.65;;;6.62;;
29634;SDS011;16557;54.762;56.068;2023-02-15T08:54:36;15.88;;;8.08;;
29634;SDS011;16557;54.762;56.068;2023-02-15T08:57:06;16.80;;;8.88;;
29634;SDS011;16557;54.762;56.068;2023-02-15T08:59:35;16.52;;;8.28;;
29634;SDS011;16557;54.762;56.068;2023-02-15T09:02:04;17.60;;;7.58;;
29634;SDS011;16557;54.762;56.068;2023-02-15T09:04:34;14.58;;;7.83;;
29634;SDS011;16557;54.762;56.068;2023-02-15T09:07:03;15.78;;;7.40;;
29634;SDS011;16557;54.762;56.068;2023-02-15T09:09:34;13.65;;;7.40;;
29634;SDS011;16557;54.762;56.068;2023-02-15T09:12:03;12.78;;;7.17;;
29634;SDS011;16557;54.762;56.068;2023-02-15T09:14:32;13.32;;;6.78;;
29634;SDS011;16557;54.762;56.068;2023-02-15T09:17:02;11.12;;;6.03;;
29634;SDS011;16557;54.762;56.068;2023-02-15T09:19:32;13.28;;;7.00;;
29634;SDS011;16557;54.762;56.068;2023-02-15T09:22:02;12.50;;;7.28;;
29634;SDS011;16557;54.762;56.068;2023-02-15T09:24:31;12.93;;;6.70;;
29634;SDS011;16557;54.762;56.068;2023-02-15T09:27:01;12.10;;;6.85;;
29634;SDS011;16557;54.762;56.068;2023-02-15T09:29:31;13.55;;;7.05;;
29634;SDS011;16557;54.762;56.068;2023-02-15T09:32:00;13.62;;;7.40;;
29634;SDS011;16557;54.762;56.068;2023-02-15T09:34:29;12.75;;;6.67;;
29634;SDS011;16557;54.762;56.068;2023-02-15T09:36:58;13.72;;;7.37;;
29634;SDS011;16557;54.762;56.068;2023-02-15T09:39:29;14.20;;;7.05;;
29634;SDS011;16557;54.762;56.068;2023-02-15T09:42:10;14.80;;;6.72;;
29634;SDS011;16557;54.762;56.068;2023-02-15T09:44:59;11.85;;;6.10;;
29634;SDS011;16557;54.762;56.068;2023-02-15T09:47:38;11.25;;;5.80;;
29634;SDS011;16557;54.762;56.068;2023-02-15T09:50:21;11.55;;;6.50;;
29634;SDS011;16557;54.762;56.068;2023-02-15T09:58:25;11.03;;;5.95;;
29634;SDS011;16557;54.762;56.068;2023-02-15T10:03:56;10.82;;;5.90;;
29634;SDS011;16557;54.762;56.068;2023-02-15T10:25:34;13.95;;;7.87;;
29634;SDS011;16557;54.762;56.068;2023-02-15T10:28:17;12.47;;;7.87;;
29634;SDS011;16557;54.762;56.068;2023-02-15T10:30:46;13.88;;;7.95;;
29634;SDS011;16557;54.762;56.068;2023-02-15T10:36:09;14.38;;;7.67;;
29634;SDS011;16557;54.762;56.068;2023-02-15T10:39:00;14.65;;;8.08;;
29634;SDS011;16557;54.762;56.068;2023-02-15T10:55:24;16.17;;;8.48;;
29634;SDS011;16557;54.762;56.068;2023-02-15T11:06:32;16.93;;;9.38;;
29634;SDS011;16557;54.762;56.068;2023-02-15T11:09:04;13.15;;;8.63;;
29634;SDS011;16557;54.762;56.068;2023-02-15T11:11:40;15.20;;;9.60;;
29634;SDS011;16557;54.762;56.068;2023-02-15T11:14:14;15.23;;;9.65;;
29634;SDS011;16557;54.762;56.068;2023-02-15T11:16:49;17.45;;;9.83;;
29634;SDS011;16557;54.762;56.068;2023-02-15T11:19:22;17.23;;;11.10;;
29634;SDS011;16557;54.762;56.068;2023-02-15T11:21:55;18.60;;;11.45;;
29634;SDS011;16557;54.762;56.068;2023-02-15T11:24:30;19.70;;;10.85;;
29634;SDS011;16557;54.762;56.068;2023-02-15T11:29:51;16.20;;;9.53;;
29634;SDS011;16557;54.762;56.068;2023-02-15T11:32:28;16.73;;;9.70;;
29634;SDS011;16557;54.762;56.068;2023-02-15T11:42:55;18.73;;;11.35;;
29634;SDS011;16557;54.762;56.068;2023-02-15T11:45:30;20.57;;;11.65;;
29634;SDS011;16557;54.762;56.068;2023-02-15T11:48:02;18.80;;;9.85;;
29634;SDS011;16557;54.762;56.068;2023-02-15T11:50:33;18.27;;;10.30;;
29634;SDS011;16557;54.762;56.068;2023-02-15T11:53:04;17.17;;;9.75;;
29634;SDS011;16557;54.762;56.068;2023-02-15T11:55:41;19.20;;;10.38;;
29634;SDS011;16557;54.762;56.068;2023-02-15T12:03:59;18.00;;;10.15;;
29634;SDS011;16557;54.762;56.068;2023-02-15T12:06:37;18.42;;;10.13;;
29634;SDS011;16557;54.762;56.068;2023-02-15T12:09:20;18.30;;;11.33;;
29634;SDS011;16557;54.762;56.068;2023-02-15T12:12:19;30.48;;;11.68;;
29634;SDS011;16557;54.762;56.068;2023-02-15T12:14:54;19.20;;;10.70;;
29634;SDS011;16557;54.762;56.068;2023-02-15T12:17:26;18.45;;;10.38;;
29634;SDS011;16557;54.762;56.068;2023-02-15T12:20:00;17.67;;;10.15;;
29634;SDS011;16557;54.762;56.068;2023-02-15T12:22:30;18.20;;;10.40;;
29634;SDS011;16557;54.762;56.068;2023-02-15T12:25:02;17.80;;;10.98;;
29634;SDS011;16557;54.762;56.068;2023-02-15T12:27:35;19.45;;;10.75;;
29634;SDS011;16557;54.762;56.068;2023-02-15T12:30:07;15.28;;;9.35;;
29634;SDS011;16557;54.762;56.068;2023-02-15T12:32:51;18.23;;;10.35;;
29634;SDS011;16557;54.762;56.068;2023-02-15T12:35:29;15.25;;;9.98;;
29634;SDS011;16557;54.762;56.068;2023-02-15T12:40:45;21.33;;;10.18;;
29634;SDS011;16557;54.762;56.068;2023-02-15T12:43:34;17.12;;;10.13;;
29634;SDS011;16557;54.762;56.068;2023-02-15T12:46:18;18.15;;;9.75;;
29634;SDS011;16557;54.762;56.068;2023-02-15T12:51:48;16.02;;;8.83;;
29634;SDS011;16557;54.762;56.068;2023-02-15T12:56:54;17.15;;;9.08;;
29634;SDS011;16557;54.762;56.068;2023-02-15T12:59:24;19.25;;;9.88;;
29634;SDS011;16557;54.762;56.068;2023-02-15T13:01:54;19.42;;;9.53;;
29634;SDS011;16557;54.762;56.068;2023-02-15T13:04:27;21.17;;;10.60;;
29634;SDS011;16557;54.762;56.068;2023-02-15T13:06:58;19.20;;;10.48;;
29634;SDS011;16557;54.762;56.068;2023-02-15T13:12:14;20.62;;;10.38;;
29634;SDS011;16557;54.762;56.068;2023-02-15T13:14:50;14.90;;;9.85;;
29634;SDS011;16557;54.762;56.068;2023-02-15T13:17:21;16.77;;;9.95;;
29634;SDS011;16557;54.762;56.068;2023-02-15T13:19:53;20.02;;;11.33;;
29634;SDS011;16557;54.762;56.068;2023-02-15T13:22:27;19.42;;;9.63;;
29634;SDS011;16557;54.762;56.068;2023-02-15T13:25:10;18.20;;;9.28;;
29634;SDS011;16557;54.762;56.068;2023-02-15T13:27:37;18.65;;;9.10;;
29634;SDS011;16557;54.762;56.068;2023-02-15T13:30:13;16.65;;;8.43;;
29634;SDS011;16557;54.762;56.068;2023-02-15T13:32:49;15.05;;;9.30;;
29634;SDS011;16557;54.762;56.068;2023-02-15T13:35:20;18.93;;;9.93;;
29634;SDS011;16557;54.762;56.068;2023-02-15T13:43:25;16.80;;;9.70;;
29634;SDS011;16557;54.762;56.068;2023-02-15T13:46:07;17.15;;;9.05;;
29634;SDS011;16557;54.762;56.068;2023-02-15T13:51:45;17.15;;;9.53;;
29634;SDS011;16557;54.762;56.068;2023-02-15T13:54:28;16.02;;;9.63;;
29634;SDS011;16557;54.762;56.068;2023-02-15T14:05:15;17.70;;;8.98;;
29634;SDS011;16557;54.762;56.068;2023-02-15T14:16:13;18.92;;;10.28;;
29634;SDS011;16557;54.762;56.068;2023-02-15T14:21:57;18.27;;;9.43;;
29634;SDS011;16557;54.762;56.068;2023-02-15T14:27:26;17.70;;;9.13;;
29634;SDS011;16557;54.762;56.068;2023-02-15T14:30:15;16.17;;;9.40;;
29634;SDS011;16557;54.762;56.068;2023-02-15T14:32:46;18.27;;;9.48;;
29634;SDS011;16557;54.762;56.068;2023-02-15T14:35:35;18.50;;;10.00;;
29634;SDS011;16557;54.762;56.068;2023-02-15T14:49:12;19.10;;;10.60;;
29634;SDS011;16557;54.762;56.068;2023-02-15T14:51:54;18.60;;;10.63;;
29634;SDS011;16557;54.762;56.068;2023-02-15T14:59:41;18.60;;;9.75;;
29634;SDS011;16557;54.762;56.068;2023-02-15T15:02:15;16.48;;;9.68;;
29634;SDS011;16557;54.762;56.068;2023-02-15T15:07:52;17.30;;;9.68;;
29634;SDS011;16557;54.762;56.068;2023-02-15T15:12:55;19.45;;;10.20;;
29634;SDS011;16557;54.762;56.068;2023-02-15T15:18:01;17.60;;;10.82;;
29634;SDS011;16557;54.762;56.068;2023-02-15T15:42:50;24.40;;;12.73;;
29634;SDS011;16557;54.762;56.068;2023-02-15T15:45:43;23.40;;;12.00;;
29634;SDS011;16557;54.762;56.068;2023-02-15T15:48:36;22.73;;;12.85;;
29634;SDS011;16557;54.762;56.068;2023-02-15T15:51:04;23.80;;;13.40;;
29634;SDS011;16557;54.762;56.068;2023-02-15T15:53:45;20.15;;;10.90;;
29634;SDS011;16557;54.762;56.068;2023-02-15T15:56:21;21.02;;;12.05;;
29634;SDS011;16557;54.762;56.068;2023-02-15T15:59:02;23.10;;;12.18;;
29634;SDS011;16557;54.762;56.068;2023-02-15T16:01:42;24.37;;;11.50;;
29634;SDS011;16557;54.762;56.068;2023-02-15T16:04:11;21.02;;;12.05;;
29634;SDS011;16557;54.762;56.068;2023-02-15T16:06:42;22.87;;;12.30;;
29634;SDS011;16557;54.762;56.068;2023-02-15T16:09:22;22.45;;;12.53;;
29634;SDS011;16557;54.762;56.068;2023-02-15T16:11:58;20.77;;;12.20;;
29634;SDS011;16557;54.762;56.068;2023-02-15T16:17:02;20.95;;;13.00;;
29634;SDS011;16557;54.762;56.068;2023-02-15T16:19:33;23.73;;;12.43;;
29634;SDS011;16557;54.762;56.068;2023-02-15T16:22:07;20.35;;;11.75;;
29634;SDS011;16557;54.762;56.068;2023-02-15T16:33:05;24.20;;;12.68;;
29634;SDS011;16557;54.762;56.068;2023-02-15T16:35:39;22.40;;;12.50;;
29634;SDS011;16557;54.762;56.068;2023-02-15T16:38:11;21.40;;;10.93;;
29634;SDS011;16557;54.762;56.068;2023-02-15T16:40:41;22.30;;;12.07;;
29634;SDS011;16557;54.762;56.068;2023-02-15T16:43:24;19.93;;;11.03;;
29634;SDS011;16557;54.762;56.068;2023-02-15T16:45:52;24.45;;;13.20;;
29634;SDS011;16557;54.762;56.068;2023-02-15T16:48:23;24.92;;;13.55;;
29634;SDS011;16557;54.762;56.068;2023-02-15T16:50:56;22.40;;;12.13;;
29634;SDS011;16557;54.762;56.068;2023-02-15T16:53:26;20.15;;;11.08;;
29634;SDS011;16557;54.762;56.068;2023-02-15T16:56:01;22.67;;;12.00;;
29634;SDS011;16557;54.762;56.068;2023-02-15T16:58:43;20.85;;;11.40;;
29634;SDS011;16557;54.762;56.068;2023-02-15T17:01:10;21.97;;;11.35;;
29634;SDS011;16557;54.762;56.068;2023-02-15T17:03:41;22.93;;;10.78;;
29634;SDS011;16557;54.762;56.068;2023-02-15T17:06:22;23.70;;;11.53;;
29634;SDS011;16557;54.762;56.068;2023-02-15T17:08:49;22.07;;;11.43;;
29634;SDS011;16557;54.762;56.068;2023-02-15T17:11:19;17.95;;;10.78;;
29634;SDS011;16557;54.762;56.068;2023-02-15T17:16:44;20.48;;;11.22;;
29634;SDS011;16557;54.762;56.068;2023-02-15T17:19:22;20.65;;;10.98;;
29634;SDS011;16557;54.762;56.068;2023-02-15T17:21:53;18.65;;;9.30;;
29634;SDS011;16557;54.762;56.068;2023-02-15T17:29:48;20.92;;;10.65;;
29634;SDS011;16557;54.762;56.068;2023-02-15T17:32:22;24.20;;;11.88;;
29634;SDS011;16557;54.762;56.068;2023-02-15T17:34:57;21.07;;;10.88;;
29634;SDS011;16557;54.762;56.068;2023-02-15T17:37:31;20.23;;;10.30;;
29634;SDS011;16557;54.762;56.068;2023-02-15T17:40:14;16.90;;;9.85;;
29634;SDS011;16557;54.762;56.068;2023-02-15T17:42:38;19.82;;;10.20;;
29634;SDS011;16557;54.762;56.068;2023-02-15T17:45:08;19.52;;;10.53;;
29634;SDS011;16557;54.762;56.068;2023-02-15T17:47:37;19.05;;;9.68;;
29634;SDS011;16557;54.762;56.068;2023-02-15T17:52:45;19.17;;;10.13;;
29634;SDS011;16557;54.762;56.068;2023-02-15T17:55:16;19.80;;;10.08;;
29634;SDS011;16557;54.762;56.068;2023-02-15T17:58:03;18.10;;;9.90;;
29634;SDS011;16557;54.762;56.068;2023-02-15T18:00:38;18.23;;;10.65;;
29634;SDS011;16557;54.762;56.068;2023-02-15T18:03:28;16.77;;;9.08;;
29634;SDS011;16557;54.762;56.068;2023-02-15T18:06:24;17.25;;;9.65;;
29634;SDS011;16557;54.762;56.068;2023-02-15T18:09:13;20.85;;;9.53;;
29634;SDS011;16557;54.762;56.068;2023-02-15T18:12:02;15.75;;;9.10;;
29634;SDS011;16557;54.762;56.068;2023-02-15T18:14:36;15.72;;;8.40;;
29634;SDS011;16557;54.762;56.068;2023-02-15T18:17:10;19.30;;;9.63;;